createdAt,value
2018-12-30T00:01:07.191Z,48.93
2018-12-30T00:03:37.582Z,44.40
2018-12-30T00:06:08.308Z,47.73
2018-12-30T00:08:39.050Z,49.73
2018-12-30T00:11:09.612Z,49.33
2018-12-30T00:13:39.960Z,46.80
2018-12-30T00:16:10.633Z,49.87
2018-12-30T00:18:41.513Z,47.50
2018-12-30T00:21:12.228Z,45.97
2018-12-30T00:23:42.511Z,47.60
2018-12-30T00:26:12.724Z,49.97
2018-12-30T00:28:42.860Z,45.53
2018-12-30T00:31:13.212Z,53.47
2018-12-30T00:33:43.587Z,48.30
2018-12-30T00:36:13.950Z,54.27
2018-12-30T00:38:45.070Z,51.97
2018-12-30T00:41:15.382Z,50.80
2018-12-30T00:43:45.834Z,49.73
2018-12-30T00:46:15.993Z,54.47
2018-12-30T00:48:46.439Z,50.17
2018-12-30T00:51:17.100Z,48.37
2018-12-30T00:53:47.654Z,52.90
2018-12-30T00:56:18.216Z,46.53
2018-12-30T00:58:48.676Z,45.57
2018-12-30T01:01:19.104Z,48.70
2018-12-30T01:03:49.302Z,50.43
2018-12-30T01:06:20.044Z,50.73
2018-12-30T01:08:50.622Z,49.83
2018-12-30T01:11:20.930Z,48.20
2018-12-30T01:13:51.175Z,47.03
2018-12-30T01:16:21.493Z,50.10
2018-12-30T01:18:51.824Z,46.87
2018-12-30T01:21:25.126Z,44.33
2018-12-30T01:23:54.451Z,45.57
2018-12-30T01:26:24.924Z,44.50
2018-12-30T01:28:55.482Z,42.70
2018-12-30T01:31:25.863Z,46.93
2018-12-30T01:33:56.125Z,41.93
2018-12-30T01:36:27.016Z,42.60
2018-12-30T01:38:57.814Z,42.40
2018-12-30T01:41:28.322Z,41.77
2018-12-30T01:43:58.608Z,37.43
2018-12-30T01:46:28.894Z,35.73
2018-12-30T01:48:59.211Z,31.97
2018-12-30T01:51:33.211Z,27.33
2018-12-30T01:54:01.398Z,23.40
2018-12-30T01:56:31.907Z,25.67
2018-12-30T01:59:02.179Z,21.80
2018-12-30T02:01:32.805Z,22.10
2018-12-30T02:04:03.072Z,21.70
2018-12-30T02:06:33.402Z,26.90
2018-12-30T02:09:04.786Z,34.20
2018-12-30T02:11:35.295Z,26.23
2018-12-30T02:14:05.575Z,26.13
2018-12-30T02:16:36.228Z,30.33
2018-12-30T02:19:06.474Z,28.83
2018-12-30T02:21:41.055Z,32.03
2018-12-30T02:24:09.021Z,32.53
2018-12-30T02:26:39.515Z,35.03
2018-12-30T02:29:09.624Z,35.77
2018-12-30T02:31:40.051Z,35.70
2018-12-30T02:34:10.369Z,36.70
2018-12-30T02:36:40.964Z,36.77
2018-12-30T02:39:11.195Z,34.53
2018-12-30T02:41:42.011Z,39.23
2018-12-30T02:44:12.367Z,42.53
2018-12-30T02:46:42.909Z,33.77
2018-12-30T02:49:13.096Z,39.37
2018-12-30T02:51:50.307Z,33.47
2018-12-30T02:54:16.115Z,41.03
2018-12-30T02:56:46.577Z,38.13
2018-12-30T02:59:16.833Z,38.13
2018-12-30T03:01:47.182Z,36.83
2018-12-30T03:04:17.837Z,33.67
2018-12-30T03:06:48.466Z,35.83
2018-12-30T03:09:19.127Z,35.40
2018-12-30T03:11:49.280Z,33.87
2018-12-30T03:14:20.110Z,37.63
2018-12-30T03:16:50.824Z,36.03
2018-12-30T03:19:20.972Z,34.97
2018-12-30T03:21:58.944Z,37.43
2018-12-30T03:24:23.545Z,33.37
2018-12-30T03:26:53.972Z,34.13
2018-12-30T03:29:24.639Z,33.20
2018-12-30T03:31:55.064Z,32.70
2018-12-30T03:34:25.555Z,33.93
2018-12-30T03:36:56.147Z,34.70
2018-12-30T03:39:26.827Z,36.23
2018-12-30T03:41:57.406Z,37.03
2018-12-30T03:44:28.137Z,34.40
2018-12-30T03:46:58.425Z,35.70
2018-12-30T03:49:28.655Z,32.73
2018-12-30T03:51:58.927Z,31.60
2018-12-30T03:54:29.526Z,28.60
2018-12-30T03:57:00.109Z,26.70
2018-12-30T03:59:31.159Z,22.57
2018-12-30T04:02:01.425Z,23.90
2018-12-30T04:04:31.969Z,21.63
2018-12-30T04:07:02.255Z,16.60
2018-12-30T04:09:32.581Z,17.90
2018-12-30T04:12:03.148Z,14.73
2018-12-30T04:14:34.547Z,15.37
2018-12-30T04:17:04.783Z,14.90
2018-12-30T04:19:34.947Z,17.67
2018-12-30T04:22:05.331Z,15.87
2018-12-30T04:24:35.621Z,14.90
2018-12-30T04:27:06.151Z,15.63
2018-12-30T04:29:36.672Z,12.37
2018-12-30T04:32:06.851Z,13.30
2018-12-30T04:34:37.775Z,14.63
2018-12-30T04:37:08.174Z,13.00
2018-12-30T04:39:38.338Z,13.43
2018-12-30T04:42:08.544Z,12.73
2018-12-30T04:44:39.116Z,13.67
2018-12-30T04:47:09.383Z,14.20
2018-12-30T04:49:39.796Z,13.67
2018-12-30T04:52:10.380Z,15.23
2018-12-30T04:54:40.715Z,14.60
2018-12-30T04:57:14.582Z,14.20
2018-12-30T04:59:44.921Z,18.13
2018-12-30T05:02:15.205Z,14.10
2018-12-30T05:04:45.356Z,16.97
2018-12-30T05:07:15.555Z,14.67
2018-12-30T05:09:45.766Z,18.13
2018-12-30T05:12:15.978Z,16.33
2018-12-30T05:14:46.269Z,18.33
2018-12-30T05:17:16.457Z,16.10
2018-12-30T05:19:46.898Z,18.70
2018-12-30T05:22:17.169Z,17.07
2018-12-30T05:24:47.612Z,21.30
2018-12-30T05:27:18.049Z,20.50
2018-12-30T05:29:48.551Z,19.87
2018-12-30T05:32:19.441Z,19.90
2018-12-30T05:34:50.286Z,19.10
2018-12-30T05:37:20.626Z,19.77
2018-12-30T05:39:50.846Z,20.83
2018-12-30T05:42:21.353Z,20.20
2018-12-30T05:44:51.819Z,21.67
2018-12-30T05:47:22.419Z,21.50
2018-12-30T05:49:53.391Z,21.67
2018-12-30T05:52:23.593Z,26.03
2018-12-30T05:54:53.869Z,24.23
2018-12-30T05:57:24.261Z,24.87
2018-12-30T05:59:54.548Z,20.63
2018-12-30T06:02:24.814Z,23.53
2018-12-30T06:04:55.119Z,25.47
2018-12-30T06:07:25.593Z,23.83
2018-12-30T06:09:56.145Z,32.50
2018-12-30T06:12:26.897Z,28.90
2018-12-30T06:14:57.143Z,27.67
2018-12-30T06:17:27.827Z,24.97
2018-12-30T06:19:58.834Z,22.77
2018-12-30T06:22:29.092Z,25.40
2018-12-30T06:24:59.404Z,30.07
2018-12-30T06:27:29.745Z,25.47
2018-12-30T06:29:59.912Z,25.07
2018-12-30T06:32:30.491Z,26.87
2018-12-30T06:35:00.819Z,22.23
2018-12-30T06:37:30.970Z,25.87
2018-12-30T06:40:01.573Z,28.87
2018-12-30T06:42:31.932Z,25.00
2018-12-30T06:45:02.157Z,23.43
2018-12-30T06:47:32.754Z,27.47
2018-12-30T06:50:03.205Z,28.27
2018-12-30T06:52:33.701Z,33.97
2018-12-30T06:55:04.001Z,27.20
2018-12-30T06:57:34.564Z,26.53
2018-12-30T07:00:05.455Z,27.57
2018-12-30T07:02:35.702Z,25.33
2018-12-30T07:05:06.287Z,29.10
2018-12-30T07:07:36.566Z,25.67
2018-12-30T07:10:07.791Z,28.37
2018-12-30T07:12:38.443Z,29.67
2018-12-30T07:15:08.819Z,32.47
2018-12-30T07:17:39.120Z,27.87
2018-12-30T07:20:09.594Z,30.87
2018-12-30T07:22:40.001Z,34.60
2018-12-30T07:25:10.757Z,25.07
2018-12-30T07:27:41.306Z,23.80
2018-12-30T07:30:11.664Z,25.23
2018-12-30T07:32:42.256Z,25.03
2018-12-30T07:35:12.610Z,26.07
2018-12-30T07:37:42.825Z,25.03
2018-12-30T07:40:13.710Z,27.20
2018-12-30T07:42:44.018Z,25.97
2018-12-30T07:45:14.308Z,22.97
2018-12-30T07:47:44.630Z,23.10
2018-12-30T07:50:15.195Z,22.83
2018-12-30T07:52:45.790Z,26.37
2018-12-30T07:55:15.994Z,21.83
2018-12-30T07:57:46.272Z,29.60
2018-12-30T08:00:17.670Z,26.97
2018-12-30T08:02:48.021Z,19.20
2018-12-30T08:05:18.701Z,26.30
2018-12-30T08:07:48.939Z,22.43
2018-12-30T08:10:19.364Z,22.50
2018-12-30T08:12:49.948Z,21.07
2018-12-30T08:15:20.189Z,20.50
2018-12-30T08:17:50.857Z,22.30
2018-12-30T08:20:21.250Z,22.77
2018-12-30T08:22:51.777Z,22.43
2018-12-30T08:25:22.326Z,24.03
2018-12-30T08:27:52.627Z,18.07
2018-12-30T08:30:22.976Z,22.00
2018-12-30T08:32:53.529Z,20.40
2018-12-30T08:35:24.155Z,18.77
2018-12-30T08:37:54.499Z,19.90
2018-12-30T08:40:24.893Z,20.30
2018-12-30T08:42:55.135Z,23.17
2018-12-30T08:45:25.318Z,17.27
2018-12-30T08:47:55.543Z,18.40
2018-12-30T08:50:26.047Z,18.57
2018-12-30T08:52:56.524Z,18.13
2018-12-30T08:55:26.765Z,20.80
2018-12-30T08:57:58.519Z,17.67
2018-12-30T09:00:28.765Z,16.93
2018-12-30T09:03:08.191Z,16.63
2018-12-30T09:05:38.353Z,17.53
2018-12-30T09:08:08.978Z,19.83
2018-12-30T09:10:39.338Z,21.90
2018-12-30T09:13:09.805Z,19.50
2018-12-30T09:15:39.951Z,21.43
2018-12-30T09:18:10.540Z,20.47
2018-12-30T09:20:40.933Z,21.37
2018-12-30T09:23:11.755Z,17.23
2018-12-30T09:25:42.356Z,20.50
2018-12-30T09:28:12.640Z,19.20
2018-12-30T09:30:43.562Z,19.10
2018-12-30T09:33:13.884Z,17.87
2018-12-30T09:35:44.357Z,19.80
2018-12-30T09:38:14.903Z,16.23
2018-12-30T09:40:45.142Z,18.10
2018-12-30T09:43:15.466Z,20.10
2018-12-30T09:45:46.456Z,21.37
2018-12-30T09:48:16.717Z,15.77
2018-12-30T09:50:47.210Z,15.07
2018-12-30T09:53:17.476Z,18.47
2018-12-30T09:55:48.338Z,23.30
2018-12-30T09:58:18.597Z,19.50
2018-12-30T10:00:49.357Z,15.43
2018-12-30T10:03:19.564Z,17.90
2018-12-30T10:05:49.916Z,14.03
2018-12-30T10:08:20.391Z,15.80
2018-12-30T10:10:51.026Z,14.63
2018-12-30T10:13:21.465Z,18.17
2018-12-30T10:15:51.909Z,15.73
2018-12-30T10:18:22.446Z,17.47
2018-12-30T10:20:52.692Z,18.53
2018-12-30T10:23:23.065Z,16.70
2018-12-30T10:25:53.367Z,14.20
2018-12-30T10:28:24.013Z,19.77
2018-12-30T10:30:54.202Z,13.17
2018-12-30T10:33:24.500Z,17.87
2018-12-30T10:35:55.252Z,14.83
2018-12-30T10:38:25.473Z,16.10
2018-12-30T10:40:55.646Z,17.03
2018-12-30T10:43:26.262Z,17.47
2018-12-30T10:45:56.804Z,14.23
2018-12-30T10:48:27.045Z,14.50
2018-12-30T10:50:57.346Z,15.97
2018-12-30T10:53:27.665Z,12.20
2018-12-30T10:55:58.175Z,15.73
2018-12-30T10:58:28.375Z,12.80
2018-12-30T11:00:58.663Z,13.57
2018-12-30T11:03:29.001Z,14.40
2018-12-30T11:05:59.259Z,16.60
2018-12-30T11:08:29.634Z,14.33
2018-12-30T11:10:59.827Z,12.37
2018-12-30T11:13:30.377Z,19.10
2018-12-30T11:16:00.859Z,14.17
2018-12-30T11:18:31.444Z,15.70
2018-12-30T11:21:01.880Z,13.77
2018-12-30T11:23:32.306Z,13.97
2018-12-30T11:26:02.808Z,13.13
2018-12-30T11:28:33.252Z,12.70
2018-12-30T11:31:03.477Z,15.37
2018-12-30T11:33:33.901Z,20.53
2018-12-30T11:36:04.283Z,17.33
2018-12-30T11:38:34.937Z,14.07
2018-12-30T11:41:05.291Z,17.33
2018-12-30T11:43:35.896Z,18.97
2018-12-30T11:46:06.318Z,18.17
2018-12-30T11:48:36.645Z,14.17
2018-12-30T11:51:07.149Z,13.87
2018-12-30T11:53:37.528Z,15.10
2018-12-30T11:56:07.852Z,14.80
2018-12-30T11:58:38.070Z,17.50
2018-12-30T12:01:08.382Z,11.37
2018-12-30T12:03:38.565Z,18.27
2018-12-30T12:06:09.049Z,16.40
2018-12-30T12:08:39.415Z,14.50
2018-12-30T12:11:10.276Z,14.13
2018-12-30T12:13:40.631Z,11.90
2018-12-30T12:16:11.055Z,11.77
2018-12-30T12:18:41.675Z,14.37
2018-12-30T12:21:11.898Z,17.97
2018-12-30T12:23:42.451Z,11.93
2018-12-30T12:26:12.708Z,15.73
2018-12-30T12:28:43.225Z,13.70
2018-12-30T12:31:13.400Z,14.33
2018-12-30T12:33:43.908Z,15.83
2018-12-30T12:36:14.319Z,11.97
2018-12-30T12:38:44.654Z,13.33
2018-12-30T12:41:14.800Z,13.00
2018-12-30T12:43:45.284Z,10.63
2018-12-30T12:46:15.618Z,15.10
2018-12-30T12:48:45.928Z,13.07
2018-12-30T12:51:16.721Z,10.03
2018-12-30T12:53:47.087Z,11.83
2018-12-30T12:56:17.441Z,12.30
2018-12-30T12:58:48.243Z,14.87
2018-12-30T13:01:18.453Z,13.53
2018-12-30T13:03:48.825Z,13.43
2018-12-30T13:06:19.436Z,12.40
2018-12-30T13:08:50.192Z,11.60
2018-12-30T13:11:20.601Z,10.53
2018-12-30T13:13:50.891Z,14.93
2018-12-30T13:16:21.162Z,12.73
2018-12-30T13:18:51.564Z,15.00
2018-12-30T13:21:21.914Z,15.50
2018-12-30T13:23:52.205Z,12.50
2018-12-30T13:26:22.435Z,16.93
2018-12-30T13:28:52.879Z,13.33
2018-12-30T13:31:23.154Z,14.27
2018-12-30T13:33:53.561Z,14.87
2018-12-30T13:36:25.352Z,14.20
2018-12-30T13:38:55.673Z,17.13
2018-12-30T13:41:26.064Z,13.80
2018-12-30T13:43:56.408Z,14.10
2018-12-30T13:46:26.717Z,16.67
2018-12-30T13:48:56.980Z,17.10
2018-12-30T13:51:27.308Z,13.80
2018-12-30T13:53:57.896Z,14.53
2018-12-30T13:56:28.268Z,13.03
2018-12-30T13:58:58.837Z,14.63
2018-12-30T14:01:29.182Z,15.43
2018-12-30T14:03:59.595Z,17.13
2018-12-30T14:06:29.911Z,17.57
2018-12-30T14:09:00.243Z,21.23
2018-12-30T14:11:30.523Z,16.10
2018-12-30T14:14:00.981Z,16.80
2018-12-30T14:16:31.351Z,17.27
2018-12-30T14:19:01.898Z,19.43
2018-12-30T14:21:32.891Z,17.20
2018-12-30T14:24:03.392Z,15.87
2018-12-30T14:26:34.319Z,18.93
2018-12-30T14:29:04.681Z,14.17
2018-12-30T14:31:35.082Z,14.30
2018-12-30T14:34:05.453Z,19.90
2018-12-30T14:36:35.993Z,21.80
2018-12-30T14:39:08.534Z,19.93
2018-12-30T14:41:38.812Z,19.70
2018-12-30T14:44:09.721Z,15.80
2018-12-30T14:46:40.464Z,19.40
2018-12-30T14:49:10.979Z,25.27
2018-12-30T14:51:41.239Z,22.63
2018-12-30T14:54:13.650Z,20.43
2018-12-30T14:56:43.874Z,24.87
2018-12-30T14:59:14.084Z,15.47
2018-12-30T15:01:44.322Z,18.60
2018-12-30T15:04:14.644Z,17.10
2018-12-30T15:06:45.035Z,18.03
2018-12-30T15:09:15.437Z,18.53
2018-12-30T15:11:46.358Z,22.83
2018-12-30T15:14:16.713Z,20.97
2018-12-30T15:16:47.431Z,16.07
2018-12-30T15:19:18.153Z,22.90
2018-12-30T15:21:48.509Z,24.33
2018-12-30T15:24:19.942Z,22.17
2018-12-30T15:27:11.592Z,17.90
2018-12-30T15:29:41.872Z,22.40
2018-12-30T15:32:12.307Z,17.60
2018-12-30T15:34:42.675Z,21.57
2018-12-30T15:37:12.957Z,18.07
2018-12-30T15:39:43.467Z,23.17
2018-12-30T15:42:18.815Z,19.23
2018-12-30T15:44:46.395Z,21.63
2018-12-30T15:47:16.667Z,25.00
2018-12-30T15:49:46.925Z,21.10
2018-12-30T15:52:17.242Z,21.33
2018-12-30T15:54:47.445Z,21.77
2018-12-30T15:57:17.908Z,21.50
2018-12-30T15:59:48.245Z,23.27
2018-12-30T16:02:18.581Z,20.77
2018-12-30T16:04:48.936Z,19.60
2018-12-30T16:07:19.217Z,22.30
2018-12-30T16:09:49.711Z,20.30
2018-12-30T16:12:20.228Z,26.97
2018-12-30T16:14:50.570Z,21.40
2018-12-30T16:17:21.301Z,18.97
2018-12-30T16:19:51.670Z,21.57
2018-12-30T16:22:22.090Z,18.43
2018-12-30T16:24:52.475Z,23.90
2018-12-30T16:27:22.857Z,21.60
2018-12-30T16:29:53.213Z,20.93
2018-12-30T16:32:23.613Z,23.60
2018-12-30T16:34:54.104Z,23.13
2018-12-30T16:37:24.260Z,26.07
2018-12-30T16:39:54.398Z,26.37
2018-12-30T16:42:24.892Z,22.77
2018-12-30T16:44:56.493Z,29.40
2018-12-30T16:47:27.190Z,21.07
2018-12-30T16:49:58.207Z,21.17
2018-12-30T16:52:28.490Z,26.03
2018-12-30T16:54:58.772Z,24.60
2018-12-30T16:57:29.083Z,24.20
2018-12-30T16:59:59.524Z,28.67
2018-12-30T17:02:29.688Z,25.73
2018-12-30T17:05:00.094Z,23.73
2018-12-30T17:07:30.578Z,21.23
2018-12-30T17:10:00.857Z,23.03
2018-12-30T17:12:32.152Z,20.97
2018-12-30T17:15:02.847Z,17.33
2018-12-30T17:17:33.217Z,26.97
2018-12-30T17:20:03.652Z,25.70
2018-12-30T17:22:34.067Z,25.23
2018-12-30T17:25:04.411Z,19.07
2018-12-30T17:27:34.851Z,20.13
2018-12-30T17:30:06.120Z,23.93
2018-12-30T17:32:36.366Z,18.03
2018-12-30T17:35:06.920Z,20.97
2018-12-30T17:37:37.391Z,21.97
2018-12-30T17:40:08.693Z,23.37
2018-12-30T17:42:39.147Z,19.27
2018-12-30T17:45:09.722Z,22.63
2018-12-30T17:47:40.164Z,17.57
2018-12-30T17:50:11.043Z,23.30
2018-12-30T17:52:41.416Z,26.07
2018-12-30T17:55:13.361Z,23.97
2018-12-30T17:57:43.568Z,20.67
2018-12-30T18:00:14.810Z,18.60
2018-12-30T18:02:45.394Z,20.17
2018-12-30T18:05:15.804Z,23.67
2018-12-30T18:07:46.286Z,21.07
2018-12-30T18:10:16.559Z,24.23
2018-12-30T18:12:47.143Z,22.57
2018-12-30T18:15:17.604Z,19.93
2018-12-30T18:17:48.160Z,22.00
2018-12-30T18:20:18.622Z,20.00
2018-12-30T18:22:48.842Z,19.40
2018-12-30T18:25:19.212Z,15.67
2018-12-30T18:27:49.401Z,20.93
2018-12-30T18:30:19.769Z,20.20
2018-12-30T18:32:50.353Z,25.13
2018-12-30T18:35:20.684Z,24.07
2018-12-30T18:37:51.471Z,21.10
2018-12-30T18:40:21.876Z,23.20
2018-12-30T18:42:52.340Z,19.87
2018-12-30T18:45:22.685Z,20.13
2018-12-30T18:47:53.081Z,18.00
2018-12-30T18:50:23.387Z,18.30
2018-12-30T18:52:54.182Z,18.13
2018-12-30T18:55:24.387Z,16.40
2018-12-30T18:57:54.729Z,21.00
2018-12-30T19:00:25.134Z,19.63
2018-12-30T19:02:55.474Z,18.23
2018-12-30T19:05:26.111Z,18.17
2018-12-30T19:07:56.562Z,23.93
2018-12-30T19:10:27.208Z,20.00
2018-12-30T19:12:57.767Z,20.47
2018-12-30T19:15:28.328Z,25.83
2018-12-30T19:17:59.002Z,19.77
2018-12-30T19:20:29.357Z,18.80
2018-12-30T19:22:59.776Z,19.50
2018-12-30T19:25:29.999Z,17.97
2018-12-30T19:28:00.501Z,18.40
2018-12-30T19:30:31.251Z,16.30
2018-12-30T19:33:01.521Z,21.57
2018-12-30T19:35:31.826Z,17.50
2018-12-30T19:38:02.124Z,21.50
2018-12-30T19:40:33.103Z,17.90
2018-12-30T19:43:03.688Z,18.97
2018-12-30T19:45:34.096Z,21.10
2018-12-30T19:48:04.501Z,22.40
2018-12-30T19:50:35.258Z,25.80
2018-12-30T19:53:05.583Z,21.23
2018-12-30T19:55:35.905Z,18.63
2018-12-30T19:58:06.496Z,19.43
2018-12-30T20:00:36.798Z,21.27
2018-12-30T20:03:07.269Z,20.87
2018-12-30T20:05:37.834Z,20.63
2018-12-30T20:08:08.098Z,24.13
2018-12-30T20:10:38.313Z,24.77
2018-12-30T20:13:09.169Z,27.20
2018-12-30T20:15:39.680Z,28.83
2018-12-30T20:18:10.192Z,25.30
2018-12-30T20:20:40.661Z,23.83
2018-12-30T20:23:10.953Z,26.70
2018-12-30T20:25:41.934Z,24.73
2018-12-30T20:28:12.396Z,24.27
2018-12-30T20:30:42.850Z,25.43
2018-12-30T20:33:13.320Z,23.97
2018-12-30T20:35:43.922Z,25.83
2018-12-30T20:38:14.405Z,23.23
2018-12-30T20:40:44.787Z,23.97
2018-12-30T20:43:15.159Z,26.33
2018-12-30T20:45:45.586Z,22.13
2018-12-30T20:48:16.524Z,18.67
2018-12-30T20:50:47.145Z,23.57
2018-12-30T20:53:17.802Z,23.43
2018-12-30T20:55:48.650Z,21.60
2018-12-30T20:58:19.593Z,18.03
2018-12-30T21:00:50.865Z,21.80
2018-12-30T21:03:21.916Z,25.67
2018-12-30T21:05:52.346Z,23.20
2018-12-30T21:08:23.167Z,22.70
2018-12-30T21:10:53.566Z,27.17
2018-12-30T21:13:24.280Z,23.70
2018-12-30T21:15:55.027Z,23.97
2018-12-30T21:18:25.371Z,26.13
2018-12-30T21:20:55.789Z,25.20
2018-12-30T21:23:26.641Z,26.07
2018-12-30T21:25:57.089Z,23.00
2018-12-30T21:28:27.328Z,21.13
2018-12-30T21:30:57.680Z,25.93
2018-12-30T21:33:28.122Z,22.70
2018-12-30T21:35:58.690Z,24.27
2018-12-30T21:38:29.020Z,24.23
2018-12-30T21:40:59.445Z,22.83
2018-12-30T21:43:29.692Z,25.23
2018-12-30T21:46:00.016Z,23.80
2018-12-30T21:48:31.158Z,23.00
2018-12-30T21:51:01.903Z,18.77
2018-12-30T21:53:32.595Z,19.53
2018-12-30T21:56:02.986Z,19.87
2018-12-30T21:58:33.396Z,22.80
2018-12-30T22:01:04.073Z,20.90
2018-12-30T22:03:34.740Z,21.57
2018-12-30T22:06:05.519Z,19.90
2018-12-30T22:08:36.173Z,17.27
2018-12-30T22:11:06.996Z,18.20
2018-12-30T22:13:37.923Z,20.90
2018-12-30T22:16:08.681Z,23.03
2018-12-30T22:18:39.830Z,24.43
2018-12-30T22:21:10.967Z,20.17
2018-12-30T22:23:41.781Z,18.87
2018-12-30T22:26:12.606Z,22.23
2018-12-30T22:28:43.800Z,22.50
2018-12-30T22:31:14.448Z,22.17
2018-12-30T22:33:45.265Z,23.00
2018-12-30T22:36:15.869Z,23.10
2018-12-30T22:38:46.730Z,22.73
2018-12-30T22:41:17.560Z,20.07
2018-12-30T22:43:48.593Z,19.60
2018-12-30T22:46:19.615Z,19.00
2018-12-30T22:48:50.036Z,18.37
2018-12-30T22:51:20.715Z,20.27
2018-12-30T22:53:51.728Z,18.80
2018-12-30T22:56:22.440Z,25.73
2018-12-30T22:58:53.032Z,19.40
2018-12-30T23:01:27.525Z,22.30
2018-12-30T23:03:58.410Z,17.80
2018-12-30T23:06:29.608Z,21.00
2018-12-30T23:09:00.468Z,23.00
2018-12-30T23:11:31.169Z,19.33
2018-12-30T23:14:02.475Z,17.97
2018-12-30T23:16:33.432Z,18.20
2018-12-30T23:19:04.359Z,21.27
2018-12-30T23:21:35.651Z,18.23
2018-12-30T23:24:06.319Z,18.67
2018-12-30T23:26:37.222Z,19.13
2018-12-30T23:29:07.759Z,19.10
2018-12-30T23:31:38.540Z,20.83
2018-12-30T23:34:09.480Z,20.17
2018-12-30T23:36:39.790Z,15.77
2018-12-30T23:39:10.136Z,19.40
2018-12-30T23:41:41.023Z,17.67
2018-12-30T23:44:11.311Z,18.97
2018-12-30T23:46:41.748Z,17.67
2018-12-30T23:49:12.181Z,20.80
2018-12-30T23:51:42.996Z,20.50
2018-12-30T23:54:13.467Z,20.43
2018-12-30T23:56:43.762Z,18.23
2018-12-30T23:59:14.269Z,19.17
